Marcellus, MI (49067)

10:54 AM EDT on March 25, 2017 (GMT -0400)
10ACREWOOD | | Change Station

Elev 915 ft 42.12 °N, 85.72 °W | Updated 3 seconds ago

Rain
Rain
43.3 °F
Feels Like 35 °F
N
17.4
Wind Variable Wind from ENE
Gusts 17.4 mph

Today
High -- | Low -- °F
--% Chance of Precip.
Yesterday
High -- | Low -- °F
Precip. -- in
Pressure 30.11 in
Visibility 4.0 miles
Clouds Scattered Clouds 600 ft
Mostly Cloudy 3700 ft
Overcast 6500 ft
Windchill 35 °F
Dew Point 40 °F
Humidity 88%
Rainfall 0.76 in
Snow Depth Not available.
7:37 AM 8:01 PM
Waning Crescent, 8% visible
METAR KHAI 251435Z AUTO 07008KT 4SM -RA SCT006 BKN037 OVC065 08/08 A3011 RMK AO2 T00810075
Pressure 30.11 in
Visibility 4.0 miles
Clouds Scattered Clouds 600 ft
Mostly Cloudy 3700 ft
Overcast 6500 ft
Windchill 35 °F
Dew Point 40 °F
Humidity 88%
Rainfall 0.76 in
Snow Depth Not available.
7:37 AM 8:01 PM
Waning Crescent, 8% visible
METAR KHAI 251435Z AUTO 07008KT 4SM -RA SCT006 BKN037 OVC065 08/08 A3011 RMK AO2 T00810075

Get Severe Weather Alerts

Thanks for signing up!

Be on the lookout for a verification email in your inbox.

You'll start receiving the daily forecast at 8 AM.

×

10-Day Weather Forecast

Almanac

Astronomy

Mar. 25, 2017 Rise Set
Actual Time
Civil Twilight
Nautical Twilight
Astronomical Twilight
Moon
Length of Visible Light
Length of Day
Tomorrow will be .
, % of the Moon is Illuminated

Today's Extremes

State Highs State Lows

Community

WunderPhotos

Upload Photos

1,962,540 photos uploaded!

WunderBlog® & News

Nearby

Air Quality

  Air Quality AQ Index Pollutant
Not available.

Snow Depth

Station Depth Elevation

Earthquake Activity

City Distance Mag. Time & Date
Minimum magnitude displayed is 2.5.

Earthquake Activity

City Distance Mag. Time & Date
Minimum magnitude displayed is 2.5.

Coastal Water Temperatures

Place Temperature

Stations

Nearby Weather Stations

Station Location Temp. Windchill Dew Point Humidity Wind Precip. Elev Updated Type
                   

Watches & Warnings

There are currently no watches in effect.